Time;durP1;ratioP1;P1;durP2;ratioP2;P2;SDS_P1;SDS_P2;PMS_P1;PMS_P2;Temp;Humidity;BMP_temperature;BMP_pressure;BME280_temperature;BME280_humidity;BME280_pressure;Samples;Min_cycle;Max_cycle;Signal;HPM_P1;HPM_P2
2022/04/30 00:00:31;;;;;;;6.15;3.78;;;;;;;9.60;71.83;100993.09;4454310;32;20211;-68
2022/04/30 00:03:00;;;;;;;7.12;3.87;;;;;;;9.60;71.38;100981.69;4454309;32;20152;-68
2022/04/30 00:05:32;;;;;;;5.82;4.20;;;;;;;9.48;73.23;100985.19;4454245;32;20088;-68
2022/04/30 00:08:06;;;;;;;6.72;4.18;;;;;;;9.37;74.88;100984.28;4454445;32;20163;-68
2022/04/30 00:10:37;;;;;;;8.63;4.95;;;;;;;9.29;75.81;100986.88;4454366;32;20172;-68
2022/04/30 00:13:12;;;;;;;6.07;4.68;;;;;;;9.14;75.85;100994.72;4454024;32;20089;-68
2022/04/30 00:15:39;;;;;;;10.95;4.78;;;;;;;9.05;76.86;100991.19;4454425;32;20097;-68
2022/04/30 00:18:08;;;;;;;11.32;4.62;;;;;;;9.01;76.61;100992.06;4454281;32;20118;-68
2022/04/30 00:20:40;;;;;;;7.53;4.72;;;;;;;8.93;77.86;100990.25;4454202;32;20105;-68
2022/04/30 00:23:19;;;;;;;6.25;4.80;;;;;;;8.88;79.81;100997.25;4454101;32;20079;-68
2022/04/30 00:25:51;;;;;;;7.45;4.93;;;;;;;8.76;80.79;100990.16;4454197;32;20138;-68
2022/04/30 00:28:20;;;;;;;6.65;4.62;;;;;;;8.82;79.89;100991.06;4454031;32;20096;-68
2022/04/30 00:30:49;;;;;;;5.60;4.20;;;;;;;8.75;79.10;100988.41;4454328;32;20092;-68
2022/04/30 00:33:16;;;;;;;7.00;4.53;;;;;;;8.74;80.03;100998.03;4453939;32;20080;-68
2022/04/30 00:35:43;;;;;;;11.35;4.07;;;;;;;8.68;79.37;101005.00;4453997;32;20168;-68
2022/04/30 00:38:11;;;;;;;7.53;4.82;;;;;;;8.59;79.96;101003.22;4454013;32;20476;-68
2022/04/30 00:40:38;;;;;;;6.03;4.60;;;;;;;8.65;78.24;101005.00;4453959;32;20105;-68
2022/04/30 00:43:05;;;;;;;6.53;4.82;;;;;;;8.61;79.76;101004.97;4454150;32;20589;-68
2022/04/30 00:45:32;;;;;;;5.75;4.07;;;;;;;8.49;81.05;101004.03;4453861;32;20097;-68
2022/04/30 00:48:00;;;;;;;6.07;4.07;;;;;;;8.52;79.80;101002.31;4453781;32;20112;-68
2022/04/30 00:50:29;;;;;;;7.82;4.65;;;;;;;8.39;80.82;101003.09;4453939;32;20242;-68
2022/04/30 00:52:59;;;;;;;8.40;4.25;;;;;;;8.37;80.83;100999.53;4453663;32;20142;-68
2022/04/30 00:55:29;;;;;;;7.03;4.60;;;;;;;8.35;79.56;100999.53;4454766;32;20097;-68
2022/04/30 00:58:04;;;;;;;6.80;4.43;;;;;;;8.23;81.21;100999.41;4455619;32;20100;-68
2022/04/30 01:00:33;;;;;;;5.45;4.22;;;;;;;8.30;81.36;101000.34;4455642;32;20195;-68
2022/04/30 01:03:02;;;;;;;5.00;3.40;;;;;;;8.13;83.13;101003.75;4455700;32;20429;-68
2022/04/30 01:05:34;;;;;;;4.70;3.70;;;;;;;8.18;81.30;101008.16;4456031;32;20088;-68
2022/04/30 01:08:01;;;;;;;6.12;3.87;;;;;;;8.25;79.76;101002.94;4455750;32;20125;-68
2022/04/30 01:10:28;;;;;;;4.97;3.65;;;;;;;8.12;81.73;101011.59;4455570;32;20088;-68
2022/04/30 01:12:56;;;;;;;4.40;3.20;;;;;;;8.04;82.18;101003.66;4455759;32;20085;-68
2022/04/30 01:15:25;;;;;;;7.47;3.90;;;;;;;7.99;83.03;100997.50;4455332;32;20550;-68
2022/04/30 01:17:52;;;;;;;7.72;3.70;;;;;;;7.90;83.51;100995.66;4455636;32;20153;-68
2022/04/30 01:20:19;;;;;;;6.43;3.92;;;;;;;7.88;83.41;101002.66;4455678;32;20119;-68
2022/04/30 01:23:02;;;;;;;5.10;3.35;;;;;;;8.03;79.68;101001.91;4455848;32;20510;-68
2022/04/30 01:25:34;;;;;;;5.40;4.18;;;;;;;8.05;79.65;100996.66;4455623;32;20073;-68
2022/04/30 01:28:02;;;;;;;6.47;3.75;;;;;;;7.95;80.82;100993.09;4455417;32;20089;-68
2022/04/30 01:30:30;;;;;;;5.22;3.83;;;;;;;7.91;80.39;100996.53;4455574;32;20479;-68
2022/04/30 01:38:29;;;;;;;5.45;4.20;;;;;;;7.73;81.78;100991.12;4455572;32;20119;-68
2022/04/30 01:40:57;;;;;;;5.75;4.00;;;;;;;7.73;83.34;100988.50;4455428;32;20175;-68
2022/04/30 01:43:25;;;;;;;7.85;4.80;;;;;;;7.65;83.12;100986.69;4455491;32;20173;-68
2022/04/30 01:45:53;;;;;;;5.87;4.40;;;;;;;7.68;82.37;100982.34;4455476;32;20123;-68
2022/04/30 01:48:21;;;;;;;12.95;4.37;;;;;;;7.69;81.36;100981.47;4455511;32;20113;-68
2022/04/30 01:50:48;;;;;;;5.40;4.60;;;;;;;7.72;80.17;100973.63;4455558;32;20478;-68
2022/04/30 01:53:15;;;;;;;6.70;4.07;;;;;;;7.81;80.02;100973.69;4455307;32;20097;-68
2022/04/30 01:55:43;;;;;;;10.80;4.50;;;;;;;7.98;78.03;100976.47;4455503;32;20152;-68
2022/04/30 01:58:11;;;;;;;6.22;4.53;;;;;;;8.00;78.59;100978.25;4455459;32;20104;-68
2022/04/30 02:00:38;;;;;;;5.47;4.32;;;;;;;8.05;78.44;100962.53;4455253;32;20096;-68
2022/04/30 02:03:08;;;;;;;6.18;4.62;;;;;;;8.11;76.69;100965.22;4455168;32;20493;-70
2022/04/30 02:05:39;;;;;;;7.78;4.97;;;;;;;8.09;78.21;100965.22;4455244;32;20120;-70
2022/04/30 02:08:09;;;;;;;6.40;5.30;;;;;;;8.06;78.90;100970.44;4455260;32;20089;-70
2022/04/30 02:10:42;;;;;;;7.20;4.97;;;;;;;8.06;77.17;100965.19;4455305;32;20138;-70
2022/04/30 02:13:10;;;;;;;6.70;4.78;;;;;;;8.06;77.93;100965.19;4455276;32;20354;-70
2022/04/30 02:15:40;;;;;;;7.72;4.85;;;;;;;8.10;76.51;100966.97;4454964;32;20152;-70
2022/04/30 02:18:13;;;;;;;6.95;5.18;;;;;;;8.23;76.65;100967.91;4455118;32;20422;-70
2022/04/30 02:20:44;;;;;;;6.40;4.60;;;;;;;8.28;76.72;100963.59;4455262;32;20187;-70
2022/04/30 02:23:11;;;;;;;15.18;4.80;;;;;;;8.28;76.15;100965.34;4455191;32;20080;-70
2022/04/30 02:25:39;;;;;;;6.87;4.32;;;;;;;8.33;75.67;100963.63;4455201;32;20198;-70
2022/04/30 02:28:08;;;;;;;8.13;5.20;;;;;;;8.35;74.91;100962.75;4455217;32;20465;-70
2022/04/30 02:30:37;;;;;;;7.05;5.62;;;;;;;8.37;74.89;100963.69;4455153;32;20104;-70
2022/04/30 02:33:15;;;;;;;9.18;5.30;;;;;;;8.32;75.32;100962.75;4455312;32;20432;-70
2022/04/30 02:35:44;;;;;;;6.30;5.30;;;;;;;8.32;75.21;100970.62;4455130;32;20119;-70
2022/04/30 02:38:12;;;;;;;6.78;5.10;;;;;;;8.37;75.69;100965.38;4455020;32;20093;-70
2022/04/30 02:40:41;;;;;;;8.20;5.20;;;;;;;8.33;75.61;100964.50;4455088;32;20088;-70
2022/04/30 02:43:11;;;;;;;7.55;4.90;;;;;;;8.35;75.31;100960.13;4455070;32;20081;-70
2022/04/30 02:45:39;;;;;;;6.93;4.57;;;;;;;8.27;75.35;100956.59;4455075;32;20088;-70
2022/04/30 02:48:08;;;;;;;7.40;5.32;;;;;;;8.29;75.37;100956.59;4454855;32;20101;-70
2022/04/30 02:50:36;;;;;;;7.25;5.43;;;;;;;8.27;74.79;100956.59;4454829;32;20597;-70
2022/04/30 02:53:05;;;;;;;6.07;4.75;;;;;;;8.26;75.02;100957.44;4454920;32;20474;-70
2022/04/30 02:55:32;;;;;;;10.10;5.80;;;;;;;8.28;74.40;100947.84;4454819;32;20117;-70
2022/04/30 03:00:48;;;;;;;7.57;4.60;;;;;;;8.14;75.87;100942.50;4454870;32;20122;-70
2022/04/30 03:03:17;;;;;;;9.07;5.68;;;;;;;8.13;75.28;100932.88;4454955;32;20099;-70
2022/04/30 03:05:47;;;;;;;6.50;5.15;;;;;;;8.06;75.73;100936.31;4454650;32;20081;-70
2022/04/30 03:08:21;;;;;;;8.88;5.32;;;;;;;7.98;74.28;100935.37;4454778;32;20120;-70
2022/04/30 03:10:51;;;;;;;6.53;4.60;;;;;;;7.98;74.80;100939.75;4454836;32;20108;-70
2022/04/30 03:13:19;;;;;;;8.00;5.75;;;;;;;7.92;75.81;100939.72;4454844;32;20100;-70
2022/04/30 03:15:50;;;;;;;6.55;5.68;;;;;;;7.92;77.79;100939.72;4454459;32;20449;-70
2022/04/30 03:23:36;;;;;;;8.43;5.43;;;;;;;7.70;79.29;100949.13;4454540;32;20072;-70
2022/04/30 03:26:08;;;;;;;7.47;5.80;;;;;;;7.62;78.37;100949.06;4454650;32;20085;-70
2022/04/30 03:28:40;;;;;;;7.10;5.45;;;;;;;7.65;78.85;100938.59;4454589;32;20144;-70
2022/04/30 03:31:13;;;;;;;8.55;5.95;;;;;;;7.58;79.31;100939.41;4454811;32;20126;-70
2022/04/30 03:33:43;;;;;;;6.97;5.78;;;;;;;7.62;79.28;100942.06;4454397;32;20152;-70
2022/04/30 03:36:12;;;;;;;6.87;6.07;;;;;;;7.59;80.31;100949.91;4454499;32;20557;-70
2022/04/30 03:38:39;;;;;;;8.27;5.68;;;;;;;7.58;80.86;100950.78;4454545;32;20115;-70
2022/04/30 03:41:07;;;;;;;11.18;6.07;;;;;;;7.60;79.54;100954.31;4454454;32;20160;-70
2022/04/30 03:43:34;;;;;;;7.28;5.50;;;;;;;7.63;79.86;100954.34;4454424;32;20504;-70
2022/04/30 03:46:01;;;;;;;7.82;5.57;;;;;;;7.70;80.17;100947.38;4454684;32;20554;-70
2022/04/30 03:48:30;;;;;;;8.25;5.57;;;;;;;7.66;80.43;100951.72;4454585;32;20097;-71
2022/04/30 03:50:58;;;;;;;14.45;6.18;;;;;;;7.69;80.69;100950.00;4454399;32;20431;-70
2022/04/30 03:53:25;;;;;;;9.32;5.55;;;;;;;7.70;80.84;100947.38;4454581;32;20119;-70
2022/04/30 03:55:53;;;;;;;8.10;5.20;;;;;;;7.75;79.76;100942.19;4454275;32;20475;-70
2022/04/30 03:58:22;;;;;;;6.80;5.68;;;;;;;7.88;78.75;100950.19;4454354;32;20096;-70
2022/04/30 04:00:49;;;;;;;8.13;5.78;;;;;;;7.98;79.04;100939.75;4454535;32;20397;-70
2022/04/30 04:03:17;;;;;;;7.78;5.50;;;;;;;8.04;78.18;100943.28;4454429;32;20417;-70
2022/04/30 04:05:44;;;;;;;11.50;6.70;;;;;;;8.14;78.33;100947.75;4454411;32;20084;-70
2022/04/30 04:08:12;;;;;;;9.70;6.30;;;;;;;8.25;79.34;100944.31;4454254;32;20166;-70
2022/04/30 04:10:43;;;;;;;10.27;6.30;;;;;;;8.30;78.17;100950.47;4454490;32;20621;-70
2022/04/30 04:18:42;;;;;;;7.45;5.12;;;;;;;8.54;75.09;100962.91;4454228;32;20190;-70
2022/04/30 04:21:10;;;;;;;10.10;6.18;;;;;;;8.67;74.20;100951.59;4454148;32;20229;-70
2022/04/30 04:26:24;;;;;;;8.35;5.37;;;;;;;8.94;74.47;100964.00;4454426;32;20413;-70
2022/04/30 04:28:51;;;;;;;9.43;5.75;;;;;;;9.05;72.88;100961.41;4453217;32;20093;-70
2022/04/30 04:31:22;;;;;;;8.52;5.70;;;;;;;9.22;72.53;100959.72;4453584;32;20116;-70
2022/04/30 04:33:51;;;;;;;8.13;5.15;;;;;;;9.37;70.33;100958.87;4454046;32;20118;-70
2022/04/30 04:36:19;;;;;;;9.00;5.25;;;;;;;9.53;69.44;100957.12;4454087;32;20093;-70
2022/04/30 04:38:46;;;;;;;10.70;5.65;;;;;;;9.69;70.76;100960.66;4453859;32;20136;-70
2022/04/30 04:41:13;;;;;;;11.93;5.90;;;;;;;9.86;69.58;100964.19;4454011;32;20104;-70
2022/04/30 04:43:40;;;;;;;8.43;5.57;;;;;;;10.02;68.25;100960.66;4453855;32;20119;-68
2022/04/30 04:46:08;;;;;;;10.15;6.05;;;;;;;10.23;67.93;100967.66;4453822;32;20409;-68
2022/04/30 04:48:36;;;;;;;10.63;6.32;;;;;;;10.35;67.65;100964.16;4453760;32;20097;-68
2022/04/30 04:51:03;;;;;;;9.65;6.25;;;;;;;10.44;67.16;100961.53;4453923;32;20105;-68
2022/04/30 04:53:30;;;;;;;8.55;5.10;;;;;;;10.59;67.90;100962.37;4453755;32;20381;-68
2022/04/30 04:55:59;;;;;;;8.85;5.07;;;;;;;10.68;66.31;100968.50;4453698;32;20081;-68
2022/04/30 04:58:26;;;;;;;11.43;5.30;;;;;;;10.84;66.86;100966.66;4453710;32;20100;-68
2022/04/30 05:00:53;;;;;;;9.85;5.00;;;;;;;11.00;66.22;100967.50;4453606;32;20127;-68
2022/04/30 05:03:21;;;;;;;8.10;5.50;;;;;;;11.17;66.83;100962.16;4453667;32;20127;-68
2022/04/30 05:05:48;;;;;;;9.25;6.45;;;;;;;11.28;66.86;100965.63;4453470;32;20096;-68
2022/04/30 05:08:15;;;;;;;11.80;7.28;;;;;;;11.42;65.26;100968.19;4453453;32;20603;-68
2022/04/30 05:10:42;;;;;;;12.55;6.40;;;;;;;11.53;64.90;100963.69;4453808;32;20139;-68
2022/04/30 05:13:09;;;;;;;8.05;5.78;;;;;;;11.66;63.24;100968.03;4453534;32;20076;-68
2022/04/30 05:15:37;;;;;;;8.65;5.60;;;;;;;11.84;64.32;100971.44;4453189;32;20097;-68
2022/04/30 05:18:04;;;;;;;8.18;5.12;;;;;;;11.95;63.59;100967.81;4438758;32;20564;-68
2022/04/30 05:20:32;;;;;;;10.65;5.43;;;;;;;12.10;62.93;100971.22;4453446;32;20101;-68
2022/04/30 05:23:10;;;;;;;8.35;5.50;;;;;;;12.22;61.76;100968.44;4453309;32;20182;-68
2022/04/30 05:25:40;;;;;;;9.48;5.62;;;;;;;12.40;61.32;100965.66;4453332;32;20457;-68
2022/04/30 05:28:08;;;;;;;9.55;6.32;;;;;;;12.55;61.24;100976.97;4453413;32;20109;-68
2022/04/30 05:30:37;;;;;;;16.98;7.65;;;;;;;12.71;61.05;100967.09;4453352;32;20865;-68
2022/04/30 05:33:04;;;;;;;15.60;6.78;;;;;;;12.89;59.45;100967.72;4453552;32;20089;-68
2022/04/30 05:35:32;;;;;;;11.98;6.00;;;;;;;12.99;59.18;100971.16;4452997;32;20443;-68
2022/04/30 05:37:59;;;;;;;10.20;5.30;;;;;;;13.17;57.02;100977.97;4452952;32;20146;-68
2022/04/30 05:40:26;;;;;;;9.98;5.60;;;;;;;13.36;56.32;100962.78;4453364;32;20260;-68
2022/04/30 05:42:53;;;;;;;11.52;5.47;;;;;;;13.51;54.87;100964.31;4455462;32;20169;-68
2022/04/30 05:45:21;;;;;;;7.07;4.40;;;;;;;13.58;54.96;100964.19;4455216;32;20577;-68
2022/04/30 05:47:48;;;;;;;7.62;4.68;;;;;;;13.72;53.64;100969.28;4455213;32;20149;-68
2022/04/30 05:50:15;;;;;;;11.07;5.20;;;;;;;13.84;53.68;100971.72;4455260;32;20101;-68
2022/04/30 05:52:42;;;;;;;8.15;4.90;;;;;;;13.95;52.84;100970.69;4455468;32;20085;-68
2022/04/30 05:55:09;;;;;;;7.50;4.95;;;;;;;14.04;53.52;100978.50;4455209;32;20119;-68
2022/04/30 05:57:37;;;;;;;5.10;4.53;;;;;;;14.13;51.77;100973.03;4455245;32;20117;-68
2022/04/30 06:00:05;;;;;;;6.55;4.07;;;;;;;14.22;52.24;100972.00;4455429;32;20482;-68
2022/04/30 06:02:32;;;;;;;5.97;4.20;;;;;;;14.29;51.99;100974.53;4455389;32;20486;-68
2022/04/30 06:04:59;;;;;;;7.35;5.00;;;;;;;14.45;51.46;100974.22;4455522;32;20405;-68
2022/04/30 06:07:26;;;;;;;7.25;4.43;;;;;;;14.52;51.14;100976.81;4455403;32;20495;-68
2022/04/30 06:09:54;;;;;;;4.30;3.80;;;;;;;14.70;50.82;100974.66;4455299;32;20093;-68
2022/04/30 06:12:21;;;;;;;12.77;4.40;;;;;;;14.80;50.46;100974.47;4455226;32;20110;-68
2022/04/30 06:14:49;;;;;;;6.97;4.55;;;;;;;14.88;51.26;100979.63;4454951;32;20566;-68
2022/04/30 06:17:16;;;;;;;7.18;4.72;;;;;;;14.95;50.14;100980.41;4455088;32;20192;-68
2022/04/30 06:19:43;;;;;;;6.32;4.32;;;;;;;15.02;50.35;100982.00;4455153;32;20519;-68
2022/04/30 06:22:11;;;;;;;9.80;4.85;;;;;;;15.16;50.26;100984.34;4455138;32;20519;-68
2022/04/30 06:24:39;;;;;;;9.52;4.80;;;;;;;15.23;49.64;100978.00;4455034;32;20252;-68
2022/04/30 06:27:06;;;;;;;5.35;4.62;;;;;;;15.33;50.89;100981.34;4455015;32;20718;-68
2022/04/30 06:29:34;;;;;;;8.07;4.75;;;;;;;15.49;50.04;100980.97;4454956;32;20432;-68
2022/04/30 06:32:02;;;;;;;9.00;4.70;;;;;;;15.56;49.30;100981.72;4455142;32;20460;-68
2022/04/30 06:34:29;;;;;;;7.07;4.93;;;;;;;15.61;48.76;100981.59;4455042;32;20413;-68
2022/04/30 06:36:56;;;;;;;14.10;5.60;;;;;;;15.66;49.44;100985.06;4454963;32;20089;-68
2022/04/30 06:39:23;;;;;;;5.12;4.60;;;;;;;15.67;48.48;100986.81;4454971;32;20524;-68
2022/04/30 06:41:50;;;;;;;7.55;5.28;;;;;;;15.86;48.69;100976.59;4455005;32;20452;-68
2022/04/30 06:44:18;;;;;;;7.10;4.95;;;;;;;15.97;48.42;100980.78;4440230;32;20447;-68
2022/04/30 06:46:46;;;;;;;5.68;4.87;;;;;;;16.10;49.02;100989.28;4454793;32;20086;-68
2022/04/30 06:49:13;;;;;;;7.28;5.32;;;;;;;16.32;48.55;100978.09;4454806;32;20096;-68
2022/04/30 06:51:40;;;;;;;8.52;5.40;;;;;;;16.40;47.72;100989.44;4454468;32;20422;-68
2022/04/30 06:57:12;;;;;;;8.25;5.03;;;;;;;16.61;47.19;100978.22;4454738;32;20084;-68
2022/04/30 06:59:41;;;;;;;6.80;4.75;;;;;;;16.71;48.14;100984.12;4440391;32;20210;-68
2022/04/30 07:02:12;;;;;;;8.70;5.53;;;;;;;16.71;46.80;100979.72;4454835;32;20084;-68
2022/04/30 07:04:41;;;;;;;8.63;5.82;;;;;;;16.82;47.12;100978.56;4454704;32;20478;-68
2022/04/30 07:07:09;;;;;;;13.38;4.93;;;;;;;16.95;46.71;100983.50;4454701;32;20119;-68
2022/04/30 07:09:37;;;;;;;6.28;5.15;;;;;;;16.99;47.24;100975.41;4454654;32;20425;-68
2022/04/30 07:12:07;;;;;;;10.15;5.35;;;;;;;17.13;46.87;100976.75;4454912;32;20579;-68
2022/04/30 07:14:36;;;;;;;7.50;4.85;;;;;;;17.29;47.92;100971.00;4454442;32;20093;-68
2022/04/30 07:17:04;;;;;;;6.80;4.55;;;;;;;17.49;46.89;100976.59;4454592;32;20126;-68
2022/04/30 07:19:32;;;;;;;11.12;5.25;;;;;;;17.64;46.67;100970.75;4454582;32;20116;-68
2022/04/30 07:22:00;;;;;;;9.50;5.12;;;;;;;17.79;46.43;100966.75;4454790;32;20088;-69
2022/04/30 07:24:27;;;;;;;7.22;4.70;;;;;;;17.88;45.61;100968.28;4454662;32;20124;-68
2022/04/30 07:26:54;;;;;;;5.35;3.92;;;;;;;18.02;45.30;100968.69;4454744;32;20437;-68
2022/04/30 07:29:24;;;;;;;11.32;4.07;;;;;;;18.14;44.01;100965.59;4454527;32;20155;-68
2022/04/30 07:31:52;;;;;;;9.20;4.75;;;;;;;18.36;44.31;100963.06;4454629;32;20433;-69
2022/04/30 07:34:19;;;;;;;5.22;3.95;;;;;;;18.44;44.26;100962.78;4454498;32;20135;-69
2022/04/30 07:36:46;;;;;;;5.60;4.05;;;;;;;18.77;42.37;100959.88;4454337;32;20127;-69
2022/04/30 07:39:13;;;;;;;11.23;4.07;;;;;;;18.84;43.41;100958.72;4454530;32;20123;-68
2022/04/30 07:41:41;;;;;;;7.20;3.60;;;;;;;18.92;42.48;100953.97;4454390;32;20470;-69
2022/04/30 07:44:08;;;;;;;8.38;3.83;;;;;;;19.07;41.74;100956.06;4454388;32;20097;-68
2022/04/30 07:46:37;;;;;;;4.90;3.33;;;;;;;19.08;41.12;100962.25;4454431;32;20124;-68
2022/04/30 07:49:05;;;;;;;3.90;3.50;;;;;;;19.23;41.15;100960.81;4454458;32;20113;-68
2022/04/30 07:51:41;;;;;;;8.98;3.75;;;;;;;19.26;39.94;100966.06;4454508;32;20576;-69
2022/04/30 07:54:09;;;;;;;5.35;3.87;;;;;;;19.26;40.69;100961.56;4454372;32;20089;-69
2022/04/30 07:56:37;;;;;;;4.95;3.58;;;;;;;19.42;40.58;100958.28;4454234;32;20504;-68
2022/04/30 07:59:04;;;;;;;14.87;4.65;;;;;;;19.67;40.03;100963.56;4454416;32;20445;-69
2022/04/30 08:01:31;;;;;;;7.05;3.72;;;;;;;19.91;39.98;100965.25;4454373;32;20155;-68
2022/04/30 08:03:59;;;;;;;13.05;4.05;;;;;;;20.07;39.29;100960.13;4453973;32;20519;-68
2022/04/30 08:06:27;;;;;;;14.27;4.03;;;;;;;20.03;38.89;100961.19;4454159;32;20093;-69
2022/04/30 08:08:54;;;;;;;4.93;3.97;;;;;;;20.27;39.10;100957.47;4454272;32;20092;-68
2022/04/30 08:11:21;;;;;;;7.55;3.78;;;;;;;20.21;38.90;100951.50;4454306;32;20163;-69
2022/04/30 08:13:48;;;;;;;4.60;4.07;;;;;;;20.24;38.40;100962.06;4454257;32;20495;-69
2022/04/30 08:16:15;;;;;;;6.15;3.80;;;;;;;20.49;38.44;100961.88;4452377;32;20114;-69
2022/04/30 08:18:43;;;;;;;5.15;3.95;;;;;;;20.65;38.94;100957.62;4454321;32;20472;-69
2022/04/30 08:21:10;;;;;;;5.28;3.80;;;;;;;20.73;38.39;100954.59;4439420;32;20088;-69
2022/04/30 08:23:37;;;;;;;6.45;3.87;;;;;;;20.71;38.33;100960.03;4454187;32;20169;-69
2022/04/30 08:26:05;;;;;;;5.70;3.97;;;;;;;20.80;38.78;100964.09;4454072;32;20417;-68
2022/04/30 08:28:32;;;;;;;17.00;3.80;;;;;;;20.86;37.58;100958.47;4454043;32;20123;-69
2022/04/30 08:30:59;;;;;;;5.85;3.83;;;;;;;20.91;37.94;100959.13;4454192;32;20149;-68
2022/04/30 08:33:28;;;;;;;7.00;3.10;;;;;;;20.95;37.04;100955.41;4454318;32;20104;-69
2022/04/30 08:35:56;;;;;;;9.98;4.03;;;;;;;20.93;37.86;100957.25;4454014;32;20101;-69
2022/04/30 08:38:23;;;;;;;7.60;3.87;;;;;;;20.76;37.43;100959.81;4453882;32;20135;-69
2022/04/30 08:40:50;;;;;;;6.65;3.92;;;;;;;20.86;38.27;100963.84;4454022;32;20380;-69
2022/04/30 08:43:20;;;;;;;5.15;4.00;;;;;;;21.00;37.93;100957.84;4453890;32;20093;-69
2022/04/30 08:45:47;;;;;;;6.37;4.20;;;;;;;20.92;38.13;100954.66;4453783;32;20445;-69
2022/04/30 08:48:16;;;;;;;5.00;3.92;;;;;;;20.92;39.53;100958.22;4453799;32;20180;-69
2022/04/30 08:50:46;;;;;;;5.45;3.87;;;;;;;21.06;38.25;100952.22;4453870;32;20522;-69
2022/04/30 08:53:14;;;;;;;6.35;3.55;;;;;;;20.92;38.24;100949.31;4453709;32;20093;-69
2022/04/30 08:55:41;;;;;;;5.07;3.62;;;;;;;20.98;37.67;100957.91;4453584;32;20096;-69
2022/04/30 08:58:09;;;;;;;4.65;4.12;;;;;;;20.99;35.32;100946.25;4453635;32;20444;-69
2022/04/30 09:00:42;;;;;;;6.57;4.53;;;;;;;20.81;36.50;100946.22;4453704;32;20100;-69
2022/04/30 09:03:20;;;;;;;8.98;4.60;;;;;;;20.89;37.63;100947.62;4453658;32;20127;-69
2022/04/30 09:05:50;;;;;;;9.90;4.80;;;;;;;21.10;37.40;100936.88;4453512;32;20093;-69
2022/04/30 09:08:18;;;;;;;4.87;3.80;;;;;;;21.23;35.90;100933.50;4453721;32;20470;-69
2022/04/30 09:10:45;;;;;;;8.88;3.92;;;;;;;21.49;36.43;100934.12;4453444;32;20084;-69
2022/04/30 09:13:16;;;;;;;7.25;3.97;;;;;;;21.63;36.03;100928.09;4453536;32;20512;-69
2022/04/30 09:15:45;;;;;;;5.95;3.85;;;;;;;21.89;37.00;100924.97;4453938;32;20131;-69
2022/04/30 09:18:14;;;;;;;6.43;4.00;;;;;;;22.23;34.77;100930.47;4455552;32;20101;-69
2022/04/30 09:20:49;;;;;;;4.72;3.78;;;;;;;22.46;33.31;100922.06;4455472;32;20081;-69
2022/04/30 09:23:24;;;;;;;4.47;4.00;;;;;;;22.69;33.48;100920.00;4455487;32;20485;-69
2022/04/30 09:25:56;;;;;;;6.80;4.00;;;;;;;22.97;34.18;100912.19;4455698;32;20081;-69
2022/04/30 09:28:25;;;;;;;5.37;3.95;;;;;;;23.11;33.40;100908.75;4455561;32;20161;-69
2022/04/30 09:31:17;;;;;;;3.75;3.45;;;;;;;23.13;31.58;100912.19;4455493;32;20100;-69
2022/04/30 09:33:50;;;;;;;3.30;3.00;;;;;;;23.32;31.12;100915.59;4444873;32;20381;-69
2022/04/30 09:39:17;;;;;;;4.12;2.83;;;;;;;23.51;30.35;100911.87;4455428;32;20148;-69
2022/04/30 09:41:44;;;;;;;3.58;3.10;;;;;;;23.48;29.92;100899.44;4455362;32;20137;-69
2022/04/30 09:44:13;;;;;;;3.80;2.90;;;;;;;23.73;30.77;100901.63;4455439;32;20450;-69
2022/04/30 09:46:41;;;;;;;6.62;3.58;;;;;;;23.79;31.99;100895.88;4455414;32;20124;-69
2022/04/30 09:54:43;;;;;;;3.53;3.22;;;;;;;24.54;29.38;100899.44;4455369;32;20465;-69
2022/04/30 09:57:14;;;;;;;3.50;3.20;;;;;;;24.61;29.54;100893.69;4455224;32;20248;-69
2022/04/30 09:59:43;;;;;;;6.60;3.90;;;;;;;25.12;29.58;100884.13;4440809;32;20130;-69
2022/04/30 10:02:13;;;;;;;3.87;3.58;;;;;;;25.04;29.80;100886.44;4455155;32;20085;-69
2022/04/30 10:04:43;;;;;;;5.00;3.35;;;;;;;25.17;28.68;100883.84;4455298;32;20466;-69
2022/04/30 10:07:14;;;;;;;3.33;3.12;;;;;;;25.47;27.10;100875.56;4455156;32;20078;-69
2022/04/30 10:09:48;;;;;;;5.95;3.75;;;;;;;25.59;26.52;100869.34;4455277;32;20100;-69
2022/04/30 10:12:25;;;;;;;4.47;3.22;;;;;;;25.36;27.20;100872.72;4455018;32;20107;-69
2022/04/30 10:15:11;;;;;;;4.70;3.75;;;;;;;25.28;26.90;100868.69;4453569;32;20180;-69
2022/04/30 10:17:42;;;;;;;4.53;3.70;;;;;;;24.97;28.60;100863.53;4455051;32;20081;-69
2022/04/30 10:20:22;;;;;;;5.05;3.37;;;;;;;25.06;27.61;100852.16;4455068;32;20456;-69
2022/04/30 10:22:57;;;;;;;4.28;2.87;;;;;;;25.06;26.84;100857.53;4455152;32;20072;-69
2022/04/30 10:25:49;;;;;;;8.60;3.00;;;;;;;24.59;27.23;100858.72;4455087;32;21026;-69
2022/04/30 10:28:19;;;;;;;4.05;2.72;;;;;;;24.54;26.75;100860.87;4454177;32;20112;-69
2022/04/30 10:31:10;;;;;;;4.05;3.33;;;;;;;24.66;26.50;100853.81;4455079;32;20155;-69
2022/04/30 10:33:48;;;;;;;4.53;3.35;;;;;;;24.56;27.97;100861.66;4455081;32;20224;-69
2022/04/30 10:36:19;;;;;;;8.57;3.37;;;;;;;24.25;27.33;100854.56;4454897;32;20143;-69
2022/04/30 10:39:02;;;;;;;4.40;3.20;;;;;;;24.08;27.22;100860.97;4454732;32;20480;-69
2022/04/30 10:41:40;;;;;;;5.37;3.35;;;;;;;23.87;27.42;100854.19;4454864;32;20131;-69
2022/04/30 10:44:07;;;;;;;3.90;3.22;;;;;;;24.24;29.16;100848.31;4454965;32;20100;-69
2022/04/30 10:46:41;;;;;;;4.32;3.45;;;;;;;24.66;29.08;100848.44;4454779;32;20173;-69
2022/04/30 10:49:08;;;;;;;5.00;3.50;;;;;;;24.86;27.97;100839.94;4455054;32;20093;-69
2022/04/30 10:51:44;;;;;;;5.40;3.00;;;;;;;25.35;28.00;100835.91;4440399;32;20147;-69
2022/04/30 10:54:13;;;;;;;6.30;3.30;;;;;;;25.63;28.04;100841.19;4454771;32;20081;-69
2022/04/30 10:56:58;;;;;;;3.03;2.80;;;;;;;25.94;26.07;100833.75;4454821;32;20551;-69
2022/04/30 10:59:26;;;;;;;9.20;3.50;;;;;;;25.66;23.05;100827.50;4440443;32;20100;-69
2022/04/30 11:01:54;;;;;;;3.37;3.08;;;;;;;25.61;26.24;100828.75;4454695;32;20457;-69
2022/04/30 11:04:22;;;;;;;3.45;2.97;;;;;;;26.11;26.50;100824.44;4454749;32;20405;-69
2022/04/30 11:06:52;;;;;;;8.02;3.22;;;;;;;26.62;25.06;100819.91;4454645;32;20116;-69
2022/04/30 11:09:21;;;;;;;6.10;3.72;;;;;;;26.77;24.08;100819.78;4454672;32;20093;-69
2022/04/30 11:11:49;;;;;;;3.20;2.78;;;;;;;26.91;23.11;100817.78;4454658;32;20559;-69
2022/04/30 11:14:18;;;;;;;7.05;3.45;;;;;;;27.09;24.09;100818.28;4454752;32;20103;-69
2022/04/30 11:16:49;;;;;;;4.55;2.95;;;;;;;26.77;23.36;100817.09;4454516;32;20151;-69
2022/04/30 11:19:23;;;;;;;4.43;2.80;;;;;;;27.48;21.82;100816.28;4454765;32;20089;-69
2022/04/30 11:21:52;;;;;;;3.53;3.22;;;;;;;28.45;22.62;100806.13;4454972;32;20176;-69
2022/04/30 11:24:30;;;;;;;3.20;2.90;;;;;;;29.04;20.63;100801.25;4454534;32;20530;-69
2022/04/30 11:27:00;;;;;;;4.75;3.33;;;;;;;30.37;20.85;100802.59;4454668;32;20109;-69
2022/04/30 11:29:27;;;;;;;4.12;3.10;;;;;;;29.91;18.77;100794.88;4454571;32;20097;-69
2022/04/30 11:31:56;;;;;;;3.22;3.03;;;;;;;30.75;19.96;100792.91;4454634;32;20147;-69
2022/04/30 11:34:24;;;;;;;3.50;3.30;;;;;;;30.23;18.66;100797.53;4454584;32;20470;-69
2022/04/30 11:36:59;;;;;;;4.50;2.78;;;;;;;30.28;19.75;100791.69;4454586;32;20101;-69
2022/04/30 11:39:28;;;;;;;3.62;3.00;;;;;;;31.53;18.90;100793.06;4453999;32;20148;-69
2022/04/30 11:41:56;;;;;;;6.78;2.72;;;;;;;31.03;17.76;100790.41;4454488;32;20134;-69
2022/04/30 11:44:25;;;;;;;3.90;3.33;;;;;;;32.11;18.64;100785.66;4454513;32;20424;-69
2022/04/30 11:46:54;;;;;;;3.30;3.00;;;;;;;33.15;18.43;100779.19;4454520;32;20465;-70
2022/04/30 11:49:26;;;;;;;2.83;2.62;;;;;;;34.31;17.22;100788.16;4454379;32;20109;-69
2022/04/30 11:52:09;;;;;;;8.38;2.95;;;;;;;34.80;16.61;100777.47;4442031;32;20161;-70
2022/04/30 11:54:38;;;;;;;5.55;2.90;;;;;;;34.46;17.24;100772.87;4454422;32;20080;-69
2022/04/30 11:57:07;;;;;;;12.55;3.33;;;;;;;34.08;16.91;100771.47;4454356;32;20101;-70
2022/04/30 11:59:40;;;;;;;4.10;2.90;;;;;;;34.05;15.94;100769.91;4454581;32;20488;-70
2022/04/30 12:02:11;;;;;;;2.53;2.40;;;;;;;33.28;15.95;100764.09;4454445;32;20130;-70
2022/04/30 12:04:41;;;;;;;2.95;2.60;;;;;;;33.76;18.29;100762.84;4439600;32;20140;-70
2022/04/30 12:07:13;;;;;;;3.70;3.33;;;;;;;32.29;16.22;100753.00;4454210;32;20105;-70
2022/04/30 12:09:49;;;;;;;2.80;2.60;;;;;;;31.77;18.05;100749.88;4454194;32;20465;-69